createdAt,value
2018-08-18T00:00:49.792Z,6.33
2018-08-18T00:03:20.412Z,7.60
2018-08-18T00:05:50.983Z,6.87
2018-08-18T00:08:21.452Z,8.40
2018-08-18T00:10:52.078Z,7.97
2018-08-18T00:13:22.465Z,7.33
2018-08-18T00:15:52.935Z,8.57
2018-08-18T00:18:23.471Z,9.17
2018-08-18T00:20:54.080Z,9.47
2018-08-18T00:23:24.616Z,8.10
2018-08-18T00:25:55.126Z,7.63
2018-08-18T00:28:26.343Z,6.70
2018-08-18T00:30:56.885Z,6.70
2018-08-18T00:33:27.374Z,7.37
2018-08-18T00:35:57.781Z,7.40
2018-08-18T00:38:28.440Z,6.70
2018-08-18T00:40:59.035Z,6.93
2018-08-18T00:43:29.563Z,6.37
2018-08-18T00:45:59.996Z,6.57
2018-08-18T00:48:31.315Z,6.23
2018-08-18T00:51:02.416Z,6.90
2018-08-18T00:53:33.068Z,6.67
2018-08-18T00:56:05.075Z,7.50
2018-08-18T00:58:35.320Z,6.80
2018-08-18T01:01:06.998Z,6.70
2018-08-18T01:03:43.506Z,6.60
2018-08-18T01:06:26.520Z,6.33
2018-08-18T01:08:58.133Z,6.80
2018-08-18T01:11:29.257Z,5.90
2018-08-18T01:14:35.464Z,6.40
2018-08-18T01:17:05.981Z,5.77
2018-08-18T01:19:36.511Z,6.33
2018-08-18T01:22:07.753Z,5.97
2018-08-18T01:24:38.177Z,5.90
2018-08-18T01:27:08.812Z,6.33
2018-08-18T01:29:39.292Z,6.43
2018-08-18T01:32:09.863Z,6.00
2018-08-18T01:34:40.361Z,5.97
2018-08-18T01:37:19.954Z,5.53
2018-08-18T01:39:53.504Z,6.23
2018-08-18T01:42:24.869Z,6.70
2018-08-18T01:44:55.992Z,6.50
2018-08-18T01:47:26.498Z,6.70
2018-08-18T01:49:57.388Z,6.63
2018-08-18T01:52:28.110Z,6.73
2018-08-18T01:54:58.976Z,6.60
2018-08-18T01:57:29.538Z,7.03
2018-08-18T02:00:00.772Z,7.27
2018-08-18T02:02:31.754Z,6.20
2018-08-18T02:05:12.293Z,5.90
2018-08-18T02:07:42.943Z,7.10
2018-08-18T02:10:13.447Z,6.63
2018-08-18T02:13:02.397Z,6.90
2018-08-18T02:15:33.325Z,6.63
2018-08-18T02:18:03.769Z,6.07
2018-08-18T02:20:34.207Z,6.70
2018-08-18T02:23:04.800Z,6.40
2018-08-18T02:25:35.784Z,6.50
2018-08-18T02:28:07.432Z,6.80
2018-08-18T02:30:38.003Z,6.73
2018-08-18T02:33:08.800Z,6.60
2018-08-18T02:35:39.500Z,6.17
2018-08-18T02:38:09.894Z,5.57
2018-08-18T02:40:40.244Z,6.00
2018-08-18T02:43:23.781Z,6.60
2018-08-18T02:45:54.222Z,6.60
2018-08-18T02:48:24.661Z,5.60
2018-08-18T02:50:55.112Z,6.03
2018-08-18T02:53:28.664Z,6.13
2018-08-18T02:55:59.190Z,5.73
2018-08-18T02:58:29.748Z,6.17
2018-08-18T03:01:00.244Z,6.20
2018-08-18T03:03:30.712Z,6.70
2018-08-18T03:06:17.277Z,6.07
2018-08-18T03:08:47.825Z,6.00
2018-08-18T03:11:18.325Z,6.03
2018-08-18T03:13:48.694Z,6.63
2018-08-18T03:16:18.986Z,6.53
2018-08-18T03:18:51.888Z,6.47
2018-08-18T03:21:30.938Z,5.50
2018-08-18T03:24:15.678Z,6.20
2018-08-18T03:26:48.583Z,5.40
2018-08-18T03:29:19.899Z,5.93
2018-08-18T03:31:50.655Z,5.30
2018-08-18T03:34:21.351Z,5.93
2018-08-18T03:36:52.997Z,6.07
2018-08-18T03:39:29.159Z,5.93
2018-08-18T03:42:01.056Z,5.73
2018-08-18T03:44:31.796Z,6.30
2018-08-18T03:47:02.257Z,6.00
2018-08-18T03:49:33.076Z,6.10
2018-08-18T03:52:03.533Z,5.43
2018-08-18T03:54:34.841Z,5.50
2018-08-18T03:57:05.435Z,5.47
2018-08-18T03:59:35.887Z,5.60
2018-08-18T04:02:06.660Z,5.57
2018-08-18T04:04:38.040Z,5.40
2018-08-18T04:07:09.467Z,5.80
2018-08-18T04:09:40.348Z,5.60
2018-08-18T04:12:11.654Z,5.53
2018-08-18T04:14:43.357Z,5.57
2018-08-18T04:17:30.107Z,5.03
2018-08-18T04:20:00.519Z,6.00
2018-08-18T04:22:32.058Z,5.77
2018-08-18T04:25:02.433Z,5.53
2018-08-18T04:27:46.302Z,5.67
2018-08-18T04:30:21.919Z,6.03
2018-08-18T04:32:55.815Z,6.27
2018-08-18T04:35:27.429Z,6.43
2018-08-18T04:37:59.246Z,6.90
2018-08-18T04:40:29.699Z,7.73
2018-08-18T04:43:01.359Z,6.10
2018-08-18T04:45:31.716Z,6.83
2018-08-18T04:48:02.232Z,5.90
2018-08-18T04:50:32.625Z,6.67
2018-08-18T04:53:03.286Z,6.60
2018-08-18T04:55:33.786Z,6.57
2018-08-18T04:58:04.762Z,6.03
2018-08-18T05:00:35.055Z,5.70
2018-08-18T05:03:05.569Z,6.07
2018-08-18T05:05:35.991Z,6.63
2018-08-18T05:08:06.471Z,6.30
2018-08-18T05:10:38.165Z,6.90
2018-08-18T05:13:08.841Z,7.93
2018-08-18T05:15:39.052Z,8.20
2018-08-18T05:18:09.683Z,7.50
2018-08-18T05:20:40.149Z,7.87
2018-08-18T05:23:22.408Z,8.23
2018-08-18T05:25:53.667Z,7.20
2018-08-18T05:28:24.041Z,7.93
2018-08-18T05:30:54.946Z,7.93
2018-08-18T05:33:25.183Z,7.33
2018-08-18T05:35:55.681Z,7.20
2018-08-18T05:38:26.441Z,6.83
2018-08-18T05:40:56.938Z,7.10
2018-08-18T05:43:27.508Z,9.00
2018-08-18T05:45:58.002Z,5.90
2018-08-18T05:48:28.398Z,7.10
2018-08-18T05:50:58.835Z,8.30
2018-08-18T05:53:30.356Z,8.60
2018-08-18T05:56:01.423Z,9.33
2018-08-18T05:58:51.773Z,8.17
2018-08-18T06:01:34.120Z,7.63
2018-08-18T06:04:12.506Z,8.97
2018-08-18T06:06:44.085Z,8.10
2018-08-18T06:09:15.878Z,8.60
2018-08-18T06:11:46.470Z,7.83
2018-08-18T06:14:17.573Z,8.60
2018-08-18T06:16:48.448Z,8.80
2018-08-18T06:19:18.914Z,8.50
2018-08-18T06:21:49.459Z,9.50
2018-08-18T06:24:20.697Z,8.63
2018-08-18T06:26:51.281Z,8.40
2018-08-18T06:29:22.471Z,8.30
2018-08-18T06:32:02.401Z,9.63
2018-08-18T06:34:34.809Z,8.07
2018-08-18T06:37:05.751Z,7.10
2018-08-18T06:39:56.604Z,7.97
2018-08-18T06:42:43.385Z,7.30
2018-08-18T06:45:17.205Z,7.13
2018-08-18T06:47:48.322Z,7.03
2018-08-18T06:50:19.561Z,7.00
2018-08-18T06:52:50.175Z,6.47
2018-08-18T06:55:21.392Z,7.47
2018-08-18T06:57:54.813Z,6.87
2018-08-18T07:00:26.333Z,6.60
2018-08-18T07:02:56.735Z,6.00
2018-08-18T07:05:27.213Z,6.30
2018-08-18T07:07:57.774Z,6.03
2018-08-18T07:10:34.687Z,6.03
2018-08-18T07:13:06.971Z,5.73
2018-08-18T07:15:38.747Z,5.93
2018-08-18T07:18:11.667Z,6.80
2018-08-18T07:20:42.681Z,6.57
2018-08-18T07:23:13.235Z,6.50
2018-08-18T07:26:09.980Z,6.30
2018-08-18T07:28:40.510Z,5.90
2018-08-18T07:31:11.203Z,6.13
2018-08-18T07:33:41.667Z,5.90
2018-08-18T07:36:12.046Z,5.73
2018-08-18T07:38:42.756Z,5.10
2018-08-18T07:41:13.426Z,4.50
2018-08-18T07:43:43.825Z,4.13
2018-08-18T07:46:14.408Z,3.77
2018-08-18T07:48:44.879Z,3.70
2018-08-18T07:51:15.438Z,3.60
2018-08-18T07:53:46.070Z,3.77
2018-08-18T07:56:16.662Z,2.97
2018-08-18T07:58:47.156Z,3.33
2018-08-18T08:01:17.736Z,2.63
2018-08-18T08:03:48.335Z,2.80
2018-08-18T08:06:19.309Z,3.73
2018-08-18T08:08:50.062Z,3.17
2018-08-18T08:11:20.600Z,3.17
2018-08-18T08:13:51.148Z,3.10
2018-08-18T08:16:21.462Z,3.07
2018-08-18T08:18:52.065Z,3.70
2018-08-18T08:21:23.211Z,2.00
2018-08-18T08:23:54.358Z,2.80
2018-08-18T08:26:24.879Z,2.30
2018-08-18T08:28:55.336Z,2.20
2018-08-18T08:31:25.904Z,2.60
2018-08-18T08:33:56.379Z,2.20
2018-08-18T08:36:26.628Z,2.47
2018-08-18T08:39:00.555Z,3.13
2018-08-18T08:41:32.793Z,2.10
2018-08-18T08:44:03.293Z,2.40
2018-08-18T08:46:33.985Z,2.30
2018-08-18T08:49:04.565Z,2.37
2018-08-18T08:51:35.254Z,2.27
2018-08-18T08:54:06.084Z,2.07
2018-08-18T08:56:39.061Z,2.47
2018-08-18T08:59:09.763Z,2.80
2018-08-18T09:01:40.264Z,2.13
2018-08-18T09:04:10.839Z,2.23
2018-08-18T09:06:48.380Z,2.60
2018-08-18T09:09:18.747Z,2.20
2018-08-18T09:11:49.260Z,2.20
2018-08-18T09:14:19.701Z,2.30
2018-08-18T09:16:50.244Z,2.10
2018-08-18T09:19:21.922Z,1.90
2018-08-18T09:21:54.941Z,2.07
2018-08-18T09:24:27.799Z,2.20
2018-08-18T09:27:00.354Z,1.70
2018-08-18T09:29:35.908Z,2.13
2018-08-18T09:32:06.546Z,2.50
2018-08-18T09:34:42.263Z,1.80
2018-08-18T09:37:12.794Z,1.70
2018-08-18T09:39:44.444Z,1.90
2018-08-18T09:42:16.264Z,2.63
2018-08-18T09:44:51.232Z,2.20
2018-08-18T09:47:21.704Z,1.80
2018-08-18T09:49:52.215Z,1.60
2018-08-18T09:52:22.573Z,1.50
2018-08-18T09:54:53.174Z,2.03
2018-08-18T09:57:23.736Z,1.87
2018-08-18T09:59:54.036Z,2.03
2018-08-18T10:02:24.429Z,1.40
2018-08-18T10:04:55.232Z,1.57
2018-08-18T10:07:25.854Z,1.67
2018-08-18T10:09:56.563Z,1.80
2018-08-18T10:12:27.019Z,1.50
2018-08-18T10:14:57.661Z,1.60
2018-08-18T10:17:28.163Z,2.00
2018-08-18T10:19:59.844Z,1.60
2018-08-18T10:22:30.288Z,1.83
2018-08-18T10:25:00.702Z,2.20
2018-08-18T10:27:31.272Z,1.60
2018-08-18T10:30:01.865Z,1.60
2018-08-18T10:32:34.555Z,2.03
2018-08-18T10:35:05.105Z,1.50
2018-08-18T10:37:35.654Z,1.30
2018-08-18T10:40:10.807Z,1.60
2018-08-18T10:42:41.597Z,1.30
2018-08-18T10:45:12.237Z,1.90
2018-08-18T10:47:42.908Z,1.20
2018-08-18T10:51:30.451Z,1.47
2018-08-18T10:54:03.142Z,1.43
2018-08-18T10:56:33.565Z,1.87
2018-08-18T10:59:21.099Z,1.37
2018-08-18T11:02:09.280Z,1.50
2018-08-18T11:04:39.795Z,1.90
2018-08-18T11:07:10.417Z,1.50
2018-08-18T11:09:40.824Z,1.20
2018-08-18T11:12:11.284Z,1.20
2018-08-18T11:14:44.094Z,1.30
2018-08-18T11:17:14.447Z,1.53
2018-08-18T11:19:44.931Z,1.90
2018-08-18T11:23:05.016Z,1.40
2018-08-18T11:25:38.029Z,1.83
2018-08-18T11:28:09.623Z,1.90
2018-08-18T11:30:40.368Z,2.30
2018-08-18T11:33:12.145Z,1.50
2018-08-18T11:35:42.780Z,2.57
2018-08-18T11:38:15.156Z,1.73
2018-08-18T11:40:46.007Z,1.50
2018-08-18T11:43:17.444Z,1.63
2018-08-18T11:45:47.775Z,1.93
2018-08-18T11:48:20.382Z,1.97
2018-08-18T11:50:51.815Z,1.83
2018-08-18T11:53:22.313Z,1.63
2018-08-18T11:55:52.918Z,1.83
2018-08-18T11:58:24.720Z,1.80
2018-08-18T12:00:59.303Z,1.53
2018-08-18T12:03:35.306Z,1.80
2018-08-18T12:06:06.734Z,1.90
2018-08-18T12:08:37.441Z,1.47
2018-08-18T12:11:08.671Z,1.90
2018-08-18T12:13:42.900Z,1.80
2018-08-18T12:16:19.252Z,1.90
2018-08-18T12:18:50.012Z,1.80
2018-08-18T12:21:20.507Z,2.00
2018-08-18T12:23:51.110Z,1.63
2018-08-18T12:26:23.518Z,2.20
2018-08-18T12:28:56.317Z,2.40
2018-08-18T12:31:28.127Z,1.67
2018-08-18T12:33:58.758Z,1.43
2018-08-18T12:36:29.248Z,2.53
2018-08-18T12:38:59.637Z,1.50
2018-08-18T12:41:30.062Z,1.80
2018-08-18T12:44:09.928Z,1.60
2018-08-18T12:46:45.542Z,1.53
2018-08-18T12:49:15.867Z,1.50
2018-08-18T12:51:49.219Z,1.90
2018-08-18T12:54:21.877Z,1.47
2018-08-18T12:56:54.113Z,1.60
2018-08-18T12:59:25.331Z,1.33
2018-08-18T13:01:58.997Z,1.50
2018-08-18T13:04:31.033Z,1.60
2018-08-18T13:07:07.340Z,1.27
2018-08-18T13:09:40.150Z,1.20
2018-08-18T13:12:10.706Z,1.00
2018-08-18T13:14:41.195Z,1.43
2018-08-18T13:17:11.469Z,1.10
2018-08-18T13:19:42.110Z,1.50
2018-08-18T13:22:12.552Z,1.23
2018-08-18T13:24:42.916Z,1.00
2018-08-18T13:27:13.512Z,1.10
2018-08-18T13:29:43.872Z,1.40
2018-08-18T13:32:14.288Z,1.00
2018-08-18T13:34:44.804Z,1.00
2018-08-18T13:37:15.233Z,1.17
2018-08-18T13:39:45.606Z,1.10
2018-08-18T13:42:25.595Z,1.20
2018-08-18T13:44:56.287Z,1.00
2018-08-18T13:47:26.879Z,1.20
2018-08-18T13:50:02.372Z,1.40
2018-08-18T13:52:42.019Z,1.03
2018-08-18T13:55:12.820Z,1.27
2018-08-18T13:57:43.327Z,1.40
2018-08-18T14:00:17.491Z,1.17
2018-08-18T14:02:48.144Z,1.07
2018-08-18T14:05:23.548Z,1.20
2018-08-18T14:08:00.737Z,1.23
2018-08-18T14:10:31.285Z,1.07
2018-08-18T14:13:04.112Z,1.20
2018-08-18T14:15:34.437Z,1.20
2018-08-18T14:18:11.571Z,1.17
2018-08-18T14:21:00.974Z,1.23
2018-08-18T14:23:31.588Z,1.03
2018-08-18T14:26:02.005Z,1.10
2018-08-18T14:28:32.491Z,1.10
2018-08-18T14:31:02.951Z,1.03
2018-08-18T14:33:33.401Z,0.97
2018-08-18T14:36:10.900Z,1.00
2018-08-18T14:38:42.440Z,1.23
2018-08-18T14:41:13.552Z,1.00
2018-08-18T14:43:43.929Z,1.07
2018-08-18T14:46:16.124Z,1.10
2018-08-18T14:48:46.445Z,1.10
2018-08-18T14:51:16.984Z,1.00
2018-08-18T14:53:47.364Z,1.17
2018-08-18T14:56:17.854Z,1.30
2018-08-18T14:58:48.297Z,1.10
2018-08-18T15:01:18.605Z,1.10
2018-08-18T15:03:49.100Z,1.10
2018-08-18T15:06:19.444Z,1.00
2018-08-18T15:08:49.924Z,1.00
2018-08-18T15:11:20.083Z,0.90
2018-08-18T15:13:50.476Z,1.40
2018-08-18T15:16:20.952Z,1.00
2018-08-18T15:18:51.267Z,1.03
2018-08-18T15:21:21.665Z,0.90
2018-08-18T15:23:51.919Z,1.00
2018-08-18T15:26:22.489Z,0.97
2018-08-18T15:28:52.885Z,1.20
2018-08-18T15:31:23.209Z,1.37
2018-08-18T15:33:53.719Z,1.80
2018-08-18T15:36:33.267Z,1.10
2018-08-18T15:39:04.057Z,1.00
2018-08-18T15:41:34.570Z,1.03
2018-08-18T15:44:11.194Z,1.30
2018-08-18T15:46:41.597Z,1.20
2018-08-18T15:49:14.019Z,1.20
2018-08-18T15:51:44.415Z,1.03
2018-08-18T15:54:14.800Z,1.37
2018-08-18T15:56:45.764Z,1.30
2018-08-18T15:59:16.250Z,1.73
2018-08-18T16:01:46.668Z,1.40
2018-08-18T16:04:17.008Z,1.30
2018-08-18T16:06:55.101Z,1.30
2018-08-18T16:09:25.560Z,1.47
2018-08-18T16:11:56.127Z,1.20
2018-08-18T16:14:37.681Z,1.63
2018-08-18T16:17:08.161Z,1.60
2018-08-18T16:19:38.624Z,1.50
2018-08-18T16:22:09.740Z,1.83
2018-08-18T16:24:45.420Z,1.77
2018-08-18T16:27:15.729Z,1.77
2018-08-18T16:29:46.212Z,1.47
2018-08-18T16:32:25.191Z,2.23
2018-08-18T16:35:02.095Z,1.50
2018-08-18T16:37:35.003Z,2.37
2018-08-18T16:40:05.429Z,2.20
2018-08-18T16:42:35.759Z,1.60
2018-08-18T16:45:06.814Z,1.10
2018-08-18T16:47:45.992Z,1.20
2018-08-18T16:50:16.573Z,1.40
2018-08-18T16:52:46.908Z,1.93
2018-08-18T16:55:17.851Z,1.70
2018-08-18T16:57:48.269Z,1.30
2018-08-18T17:00:18.532Z,1.77
2018-08-18T17:02:48.927Z,2.03
2018-08-18T17:05:19.254Z,1.37
2018-08-18T17:07:49.577Z,1.37
2018-08-18T17:10:19.824Z,1.40
2018-08-18T17:12:50.338Z,1.33
2018-08-18T17:15:20.792Z,2.00
2018-08-18T17:17:51.233Z,1.67
2018-08-18T17:20:21.741Z,1.30
2018-08-18T17:22:52.196Z,1.70
2018-08-18T17:25:25.039Z,1.23
2018-08-18T17:27:55.584Z,1.40
2018-08-18T17:30:25.909Z,1.80
2018-08-18T17:32:56.152Z,1.33
2018-08-18T17:35:26.646Z,1.30
2018-08-18T17:37:57.667Z,1.73
2018-08-18T17:40:28.041Z,2.63
2018-08-18T17:42:58.493Z,2.97
2018-08-18T17:45:29.044Z,2.17
2018-08-18T17:47:59.510Z,1.40
2018-08-18T17:50:29.903Z,1.30
2018-08-18T17:53:00.381Z,1.30
2018-08-18T17:55:31.000Z,1.37
2018-08-18T17:58:01.465Z,1.50
2018-08-18T18:00:33.215Z,1.53
2018-08-18T18:03:03.788Z,1.40
2018-08-18T18:05:35.482Z,1.60
2018-08-18T18:08:07.202Z,1.30
2018-08-18T18:10:39.168Z,1.53
2018-08-18T18:15:53.330Z,1.30
2018-08-18T18:18:25.103Z,1.23
2018-08-18T18:20:56.175Z,1.70
2018-08-18T18:23:26.648Z,1.40
2018-08-18T18:25:57.138Z,1.50
2018-08-18T18:28:27.583Z,1.47
2018-08-18T18:30:58.209Z,1.30
2018-08-18T18:33:28.790Z,1.40
2018-08-18T18:35:59.161Z,1.70
2018-08-18T18:38:29.541Z,1.63
2018-08-18T18:41:00.005Z,1.70
2018-08-18T18:43:30.480Z,2.40
2018-08-18T18:46:01.026Z,2.13
2018-08-18T18:48:31.495Z,1.63
2018-08-18T18:51:01.869Z,2.30
2018-08-18T18:53:48.508Z,1.43
2018-08-18T18:56:19.042Z,1.60
2018-08-18T18:58:49.440Z,1.70
2018-08-18T19:01:21.025Z,1.83
2018-08-18T19:03:51.689Z,1.77
2018-08-18T19:06:30.380Z,1.50
2018-08-18T19:09:02.516Z,1.40
2018-08-18T19:11:33.195Z,1.33
2018-08-18T19:14:03.697Z,1.40
2018-08-18T19:16:34.162Z,1.50
2018-08-18T19:19:04.665Z,1.50
2018-08-18T19:21:35.449Z,1.97
2018-08-18T19:24:26.838Z,1.50
2018-08-18T19:27:00.347Z,1.70
2018-08-18T19:29:30.765Z,1.40
2018-08-18T19:32:01.887Z,1.50
2018-08-18T19:34:32.295Z,2.00
2018-08-18T19:37:05.210Z,1.87
2018-08-18T19:39:36.549Z,1.67
2018-08-18T19:42:12.930Z,2.30
2018-08-18T19:44:46.528Z,2.20
2018-08-18T19:47:22.562Z,2.00
2018-08-18T19:49:53.134Z,2.10
2018-08-18T19:52:25.042Z,2.37
2018-08-18T19:54:55.447Z,1.70
2018-08-18T19:57:30.711Z,1.93
2018-08-18T20:00:11.367Z,2.57
2018-08-18T20:03:03.964Z,2.43
2018-08-18T20:05:34.295Z,2.70
2018-08-18T20:08:04.589Z,2.40
2018-08-18T20:10:56.333Z,2.70
2018-08-18T20:13:28.321Z,2.90
2018-08-18T20:16:00.236Z,2.70
2018-08-18T20:18:30.917Z,2.20
2018-08-18T20:21:01.208Z,2.80
2018-08-18T20:23:41.625Z,2.57
2018-08-18T20:26:12.019Z,3.57
2018-08-18T20:28:42.352Z,3.60
2018-08-18T20:31:12.796Z,2.40
2018-08-18T20:33:43.211Z,2.70
2018-08-18T20:36:13.776Z,2.70
2018-08-18T20:38:49.820Z,2.90
2018-08-18T20:41:20.061Z,3.17
2018-08-18T20:43:50.447Z,2.40
2018-08-18T20:46:20.692Z,2.57
2018-08-18T20:48:50.963Z,2.27
2018-08-18T20:51:35.630Z,2.40
2018-08-18T20:54:06.202Z,2.23
2018-08-18T20:56:36.556Z,1.87
2018-08-18T20:59:07.584Z,1.87
2018-08-18T21:01:38.820Z,2.23
2018-08-18T21:04:09.320Z,2.07
2018-08-18T21:06:40.215Z,1.90
2018-08-18T21:09:26.242Z,2.20
2018-08-18T21:11:56.744Z,2.30
2018-08-18T21:14:30.464Z,2.40
2018-08-18T21:17:00.976Z,1.83
2018-08-18T21:19:31.385Z,2.07
2018-08-18T21:22:01.662Z,2.00
2018-08-18T21:24:31.717Z,1.97
2018-08-18T21:27:01.928Z,2.33
2018-08-18T21:29:32.004Z,1.83
2018-08-18T21:32:02.132Z,2.00
2018-08-18T21:34:44.034Z,2.60
2018-08-18T21:37:14.460Z,2.47
2018-08-18T21:39:44.939Z,2.17
2018-08-18T21:42:15.436Z,2.17
2018-08-18T21:44:45.811Z,2.67
2018-08-18T21:47:16.628Z,2.40
2018-08-18T21:49:47.891Z,1.90
2018-08-18T21:52:18.221Z,2.90
2018-08-18T21:54:48.635Z,2.87
2018-08-18T21:57:18.963Z,2.37
2018-08-18T21:59:59.775Z,2.77
2018-08-18T22:02:43.139Z,2.43
2018-08-18T22:05:14.985Z,3.60
2018-08-18T22:07:51.709Z,2.60
2018-08-18T22:10:22.295Z,2.60
2018-08-18T22:12:52.892Z,2.97
2018-08-18T22:15:23.409Z,2.90
2018-08-18T22:17:54.517Z,2.53
2018-08-18T22:20:24.927Z,2.83
2018-08-18T22:22:55.485Z,2.70
2018-08-18T22:25:26.063Z,2.93
2018-08-18T22:27:57.011Z,3.70
2018-08-18T22:30:28.148Z,4.13
2018-08-18T22:32:58.599Z,3.43
2018-08-18T22:35:29.127Z,3.20
2018-08-18T22:37:59.748Z,3.20
2018-08-18T22:40:31.099Z,3.00
2018-08-18T22:43:01.468Z,3.37
2018-08-18T22:45:32.067Z,2.87
2018-08-18T22:48:02.645Z,3.73
2018-08-18T22:50:33.050Z,3.00
2018-08-18T22:53:03.616Z,3.10
2018-08-18T22:55:34.205Z,3.10
2018-08-18T22:58:04.710Z,3.40
2018-08-18T23:00:40.529Z,2.93
2018-08-18T23:03:11.184Z,3.53
2018-08-18T23:05:41.683Z,3.17
2018-08-18T23:08:12.246Z,3.20
2018-08-18T23:10:42.942Z,3.50
2018-08-18T23:13:13.499Z,3.23
2018-08-18T23:15:44.169Z,3.70
2018-08-18T23:18:14.771Z,3.40
2018-08-18T23:20:45.368Z,3.43
2018-08-18T23:23:15.727Z,3.43
2018-08-18T23:25:46.147Z,3.80
2018-08-18T23:28:16.423Z,3.90
2018-08-18T23:30:47.028Z,4.30
2018-08-18T23:33:17.678Z,4.53
2018-08-18T23:35:48.203Z,5.17
2018-08-18T23:38:18.709Z,3.93
2018-08-18T23:40:50.492Z,3.67
2018-08-18T23:43:20.861Z,3.70
2018-08-18T23:45:51.353Z,4.00
2018-08-18T23:48:21.661Z,4.10
2018-08-18T23:50:51.971Z,4.10
2018-08-18T23:53:22.279Z,4.60
2018-08-18T23:55:58.845Z,4.57
2018-08-18T23:58:30.468Z,5.00
